Consulta les dades en temps real de l'estació municipal de Susqueda - Veïnat del Coll
| Hora UTC | 04:00 |
|---|---|
| Temperatura | 21.5 ºC |
| Humitat | 68.3 % |
| Pressió | 1024.0 hPa |
| Pluja | 0.0 mm |
| Velocitat vent | 4.7 km/h |
| Direcció vent | SW |
| Radiació solar | 0.1 W/m² |
| Temperatura (ºC) | Humitat (%) | Pressió (hPa) | Velocitat vent (km/h) | Precipitació (mm) | Radiació solar (W/m²) | |||||||||||||
|---|---|---|---|---|---|---|---|---|---|---|---|---|---|---|---|---|---|---|
| Hora UTC | Aire | Humitat | Pressió | Vel. | Dir. | Vel. Max | Dir. | Intent. màx 5 min. | Rad. Sol. | |||||||||
| 00:05 | 21.9 | 68.1 | 1025.3 | 4.7 | SW | 4.7 | WSW | 0.0 | 0.1 | |||||||||
| 00:10 | 21.8 | 67.8 | 1025.3 | 4.5 | SSW | 9.2 | SSW | 0.0 | 0.1 | |||||||||
| 00:15 | 21.8 | 67.3 | 1025.3 | 5.3 | SSW | 10.6 | SSW | 0.0 | 0.1 | |||||||||
| 00:20 | 21.9 | 67.1 | 1025.3 | 5.2 | SW | 9.5 | SSW | 0.0 | 0.1 | |||||||||
| 00:25 | 22.1 | 67.4 | 1025.2 | 4.9 | SW | 8.5 | SW | 0.0 | 0.1 | |||||||||
| 00:30 | 22.2 | 66.9 | 1025.2 | 5.0 | SW | 10.6 | SW | 0.0 | 0.1 | |||||||||
| 00:35 | 22.3 | 66.1 | 1025.1 | 4.9 | SW | 8.1 | SW | 0.0 | 0.1 | |||||||||
| 00:40 | 22.2 | 66.0 | 1025.1 | 5.2 | SW | 8.5 | SW | 0.0 | 0.1 | |||||||||
| 00:45 | 22.3 | 66.3 | 1025.1 | 5.0 | SW | 7.4 | SSW | 0.0 | 0.1 | |||||||||
| 00:50 | 22.3 | 66.0 | 1025.1 | 5.7 | SW | 10.6 | SSW | 0.0 | 0.1 | |||||||||
| 00:55 | 22.4 | 66.3 | 1025.0 | 5.2 | SW | 9.5 | SSW | 0.0 | 0.1 | |||||||||
| 01:00 | 22.4 | 66.0 | 1025.0 | 5.1 | SW | 9.9 | SW | 0.0 | 0.1 | |||||||||
| 01:05 | 22.5 | 64.8 | 1024.9 | 5.3 | SW | 9.5 | WSW | 0.0 | 0.1 | |||||||||
| 01:10 | 22.5 | 65.0 | 1024.9 | 5.5 | SSW | 8.1 | SSW | 0.0 | 0.1 | |||||||||
| 01:15 | 22.4 | 64.8 | 1024.8 | 5.2 | SSW | 9.2 | SW | 0.0 | 0.1 | |||||||||
| 01:20 | 22.5 | 64.1 | 1024.8 | 5.4 | SSW | 8.8 | S | 0.0 | 0.1 | |||||||||
| 01:25 | 22.5 | 64.0 | 1024.8 | 5.0 | SSW | 9.5 | SSW | 0.0 | 0.1 | |||||||||
| 01:30 | 22.5 | 64.0 | 1024.8 | 6.2 | SSW | 8.5 | S | 0.0 | 0.1 | |||||||||
| 01:35 | 22.5 | 63.1 | 1024.8 | 7.0 | SSW | 12.0 | S | 0.0 | 0.1 | |||||||||
| 01:40 | 22.6 | 61.7 | 1024.8 | 7.3 | SSW | 11.6 | S | 0.0 | 0.1 | |||||||||
| 01:45 | 22.8 | 60.9 | 1024.7 | 5.9 | SSW | 9.9 | S | 0.0 | 0.1 | |||||||||
| 01:50 | 22.8 | 60.8 | 1024.7 | 5.7 | SSW | 10.6 | SSW | 0.0 | 0.1 | |||||||||
| 01:55 | 22.6 | 61.2 | 1024.6 | 5.7 | SSW | 8.5 | S | 0.0 | 0.1 | |||||||||
| 02:00 | 22.6 | 61.1 | 1024.6 | 6.1 | SSW | 8.5 | SSW | 0.0 | 0.1 | |||||||||
| 02:05 | 22.5 | 61.3 | 1024.6 | 5.4 | SSW | 8.5 | SSW | 0.0 | 0.1 | |||||||||
| 02:10 | 22.5 | 62.3 | 1024.6 | 5.1 | SSW | 7.4 | SW | 0.0 | 0.1 | |||||||||
| 02:15 | 22.5 | 62.0 | 1024.5 | 5.4 | SSW | 8.8 | SSW | 0.0 | 0.1 | |||||||||
| 02:20 | 22.5 | 62.3 | 1024.5 | 5.2 | SSW | 8.5 | S | 0.0 | 0.1 | |||||||||
| 02:25 | 22.4 | 62.1 | 1024.4 | 5.8 | SSW | 8.8 | SSW | 0.0 | 0.1 | |||||||||
| 02:30 | 22.4 | 59.8 | 1024.4 | 5.3 | SSW | 8.5 | S | 0.0 | 0.1 | |||||||||
| 02:35 | 22.5 | 60.6 | 1024.4 | 3.8 | SSW | 6.7 | SSW | 0.0 | 0.1 | |||||||||
| 02:40 | 22.2 | 63.3 | 1024.4 | 3.9 | SSW | 7.1 | SSW | 0.0 | 0.1 | |||||||||
| 02:45 | 22.1 | 64.5 | 1024.4 | 4.5 | SSW | 8.5 | SSW | 0.0 | 0.1 | |||||||||
| 02:50 | 21.9 | 65.4 | 1024.4 | 4.7 | SSW | 8.5 | SSW | 0.0 | 0.1 | |||||||||
| 02:55 | 21.9 | 66.0 | 1024.4 | 4.7 | SW | 7.4 | SSW | 0.0 | 0.1 | |||||||||
| 03:00 | 21.9 | 66.3 | 1024.4 | 4.8 | SW | 8.5 | SW | 0.0 | 0.1 | |||||||||
| 03:05 | 21.8 | 66.8 | 1024.3 | 4.5 | SW | 8.1 | SSW | 0.0 | 0.1 | |||||||||
| 03:10 | 21.7 | 67.7 | 1024.3 | 4.7 | SW | 8.5 | S | 0.0 | 0.1 | |||||||||
| 03:15 | 21.6 | 68.2 | 1024.3 | 4.4 | SW | 8.5 | SSW | 0.0 | 0.1 | |||||||||
| 03:20 | 21.5 | 68.6 | 1024.3 | 4.4 | SW | 7.8 | SW | 0.0 | 0.1 | |||||||||
| 03:25 | 21.5 | 68.7 | 1024.3 | 4.3 | SW | 8.8 | SW | 0.0 | 0.1 | |||||||||
| 03:30 | 21.6 | 68.9 | 1024.3 | 3.9 | SW | 8.1 | SSW | 0.0 | 0.1 | |||||||||
| 03:35 | 21.5 | 69.6 | 1024.2 | 4.4 | SW | 7.8 | SSW | 0.0 | 0.1 | |||||||||
| 03:40 | 21.4 | 69.9 | 1024.2 | 4.6 | SW | 8.1 | SW | 0.0 | 0.1 | |||||||||
| 03:45 | 21.4 | 69.8 | 1024.1 | 5.0 | SW | 9.5 | SW | 0.0 | 0.1 | |||||||||
| 03:50 | 21.5 | 69.4 | 1024.1 | 5.0 | SW | 10.2 | SSW | 0.0 | 0.1 | |||||||||
| 03:55 | 21.5 | 69.1 | 1024.0 | 5.5 | SW | 9.2 | SW | 0.0 | 0.1 | |||||||||
| 04:00 | 21.5 | 68.3 | 1024.0 | 4.7 | SW | 9.9 | SSW | 0.0 | 0.1 | |||||||||
| Màxima | 22.8 | 69.9 | 1025.3 | 7.3 | SSW | 12.0 | S | 0.0 | 0.1 | |||||||||
| Mínima | 20 | 59.8 | 1024.0 | |||||||||||||||
| Total | 0.0 | |||||||||||||||||